createdAt,value
2019-03-31T00:01:55.546Z,47.40
2019-03-31T00:04:26.946Z,43.77
2019-03-31T00:07:00.068Z,44.80
2019-03-31T00:09:31.962Z,45.53
2019-03-31T00:15:00.755Z,47.97
2019-03-31T00:17:32.159Z,46.43
2019-03-31T00:20:03.441Z,47.30
2019-03-31T00:22:35.954Z,47.87
2019-03-31T00:25:07.299Z,53.30
2019-03-31T00:27:38.477Z,52.27
2019-03-31T00:30:09.619Z,49.80
2019-03-31T00:32:59.925Z,49.17
2019-03-31T00:35:31.145Z,50.43
2019-03-31T00:38:03.377Z,47.70
2019-03-31T00:40:34.659Z,49.80
2019-03-31T00:43:05.789Z,53.20
2019-03-31T00:45:37.032Z,53.50
2019-03-31T00:48:08.264Z,53.13
2019-03-31T00:50:39.482Z,55.53
2019-03-31T00:53:10.600Z,57.50
2019-03-31T00:55:41.815Z,56.23
2019-03-31T00:58:16.049Z,58.37
2019-03-31T01:00:53.835Z,61.83
2019-03-31T01:03:27.091Z,61.97
2019-03-31T01:05:58.362Z,59.67
2019-03-31T01:08:30.369Z,63.83
2019-03-31T01:11:14.232Z,67.67
2019-03-31T01:13:49.891Z,62.43
2019-03-31T01:16:21.151Z,63.97
2019-03-31T01:18:52.453Z,61.63
2019-03-31T01:21:23.593Z,68.20
2019-03-31T01:23:54.713Z,67.53
2019-03-31T01:26:26.236Z,68.87
2019-03-31T01:28:57.751Z,70.43
2019-03-31T01:31:49.644Z,76.07
2019-03-31T01:34:25.236Z,70.23
2019-03-31T01:36:57.512Z,71.77
2019-03-31T01:39:29.797Z,74.93
2019-03-31T01:42:01.401Z,77.40
2019-03-31T01:44:35.658Z,76.00
2019-03-31T01:47:08.527Z,77.00
2019-03-31T01:49:39.687Z,72.63
2019-03-31T01:52:15.407Z,84.07
2019-03-31T01:54:56.483Z,75.30
2019-03-31T01:57:34.649Z,80.40
2019-03-31T02:00:10.595Z,80.70
2019-03-31T02:02:50.847Z,78.77
2019-03-31T02:05:22.067Z,75.47
2019-03-31T02:07:54.423Z,78.40
2019-03-31T02:10:25.735Z,84.63
2019-03-31T02:12:56.897Z,79.23
2019-03-31T02:15:28.254Z,77.43
2019-03-31T02:17:59.429Z,81.67
2019-03-31T02:20:30.772Z,77.53
2019-03-31T02:23:01.964Z,79.17
2019-03-31T02:25:33.249Z,82.30
2019-03-31T02:28:12.336Z,76.37
2019-03-31T02:30:43.469Z,83.97
2019-03-31T02:33:14.713Z,89.17
2019-03-31T02:36:00.073Z,86.47
2019-03-31T02:38:31.271Z,82.17
2019-03-31T02:41:03.545Z,87.93
2019-03-31T02:43:35.004Z,83.60
2019-03-31T02:46:15.570Z,79.00
2019-03-31T02:48:46.824Z,92.13
2019-03-31T02:51:18.213Z,90.87
2019-03-31T02:53:49.350Z,88.03
2019-03-31T02:56:20.857Z,85.47
2019-03-31T02:58:53.002Z,85.27
2019-03-31T03:01:25.588Z,87.90
2019-03-31T03:03:56.904Z,82.53
2019-03-31T03:06:29.080Z,87.43
2019-03-31T03:09:01.811Z,85.57
2019-03-31T03:11:36.558Z,90.97
2019-03-31T03:14:07.888Z,90.13
2019-03-31T03:16:39.145Z,88.83
2019-03-31T03:19:10.300Z,92.67
2019-03-31T03:21:41.439Z,88.13
2019-03-31T03:24:12.674Z,99.10
2019-03-31T03:26:44.003Z,88.20
2019-03-31T03:29:15.264Z,92.37
2019-03-31T03:31:56.491Z,96.03
2019-03-31T03:34:27.625Z,99.27
2019-03-31T03:36:59.562Z,101.17
2019-03-31T03:39:31.044Z,101.30
2019-03-31T03:42:36.239Z,95.87
2019-03-31T03:45:08.584Z,101.17
2019-03-31T03:47:39.800Z,99.07
2019-03-31T03:50:11.243Z,99.50
2019-03-31T03:52:42.404Z,96.43
2019-03-31T03:55:13.694Z,95.43
2019-03-31T03:57:44.790Z,99.07
2019-03-31T04:00:16.122Z,99.23
2019-03-31T04:02:47.407Z,97.20
2019-03-31T04:05:18.996Z,102.33
2019-03-31T04:07:50.346Z,100.20
2019-03-31T04:11:13.756Z,103.83
2019-03-31T04:13:45.091Z,105.23
2019-03-31T04:16:16.425Z,98.83
2019-03-31T04:18:47.601Z,100.00
2019-03-31T04:21:18.939Z,100.73
2019-03-31T04:23:50.154Z,100.83
2019-03-31T04:26:21.451Z,105.07
2019-03-31T04:28:52.626Z,103.33
2019-03-31T04:31:23.879Z,108.50
2019-03-31T04:33:55.017Z,107.70
2019-03-31T04:36:26.318Z,110.37
2019-03-31T04:39:00.115Z,108.97
2019-03-31T04:41:30.523Z,107.97
2019-03-31T04:44:01.712Z,102.87
2019-03-31T04:46:33.912Z,108.03
2019-03-31T04:49:06.164Z,104.67
2019-03-31T04:51:38.505Z,106.53
2019-03-31T04:54:09.621Z,111.23
2019-03-31T04:56:40.747Z,109.27
2019-03-31T04:59:11.982Z,109.40
2019-03-31T05:01:43.208Z,104.57
2019-03-31T05:04:14.443Z,99.13
2019-03-31T05:06:45.582Z,103.37
2019-03-31T05:09:17.660Z,98.80
2019-03-31T05:11:48.880Z,98.10
2019-03-31T05:14:20.009Z,101.97
2019-03-31T05:16:51.131Z,95.47
2019-03-31T05:19:22.392Z,98.90
2019-03-31T05:21:53.619Z,97.70
2019-03-31T05:24:24.662Z,94.23
2019-03-31T05:26:59.382Z,94.23
2019-03-31T05:29:37.746Z,91.03
2019-03-31T05:32:09.101Z,87.70
2019-03-31T05:34:40.216Z,88.97
2019-03-31T05:37:11.787Z,91.23
2019-03-31T05:39:42.935Z,85.00
2019-03-31T05:42:29.957Z,81.33
2019-03-31T05:45:06.291Z,81.40
2019-03-31T05:47:37.867Z,73.23
2019-03-31T05:50:13.101Z,74.27
2019-03-31T05:52:44.705Z,73.60
2019-03-31T05:55:27.140Z,66.30
2019-03-31T05:57:58.324Z,67.67
2019-03-31T06:00:38.320Z,71.73
2019-03-31T06:03:27.359Z,73.93
2019-03-31T06:06:04.626Z,66.07
2019-03-31T06:08:35.959Z,67.10
2019-03-31T06:11:07.210Z,69.57
2019-03-31T06:13:38.403Z,64.03
2019-03-31T06:16:17.010Z,63.07
2019-03-31T06:18:51.320Z,61.83
2019-03-31T06:21:22.676Z,60.20
2019-03-31T06:23:55.073Z,60.67
2019-03-31T06:26:26.275Z,55.57
2019-03-31T06:28:57.535Z,61.43
2019-03-31T06:31:30.775Z,58.17
2019-03-31T06:34:01.994Z,58.03
2019-03-31T06:37:02.624Z,61.03
2019-03-31T06:39:34.332Z,59.70
2019-03-31T06:42:05.775Z,56.93
2019-03-31T06:44:38.958Z,56.83
2019-03-31T06:47:10.501Z,57.10
2019-03-31T06:49:41.754Z,58.53
2019-03-31T06:52:13.011Z,63.37
2019-03-31T06:54:44.229Z,63.03
2019-03-31T06:57:15.479Z,59.80
2019-03-31T06:59:46.772Z,58.40
2019-03-31T07:02:18.022Z,62.87
2019-03-31T07:05:00.384Z,59.47
2019-03-31T07:07:23.845Z,55.27
2019-03-31T07:09:55.378Z,52.83
2019-03-31T07:12:27.596Z,55.33
2019-03-31T07:14:58.761Z,53.53
2019-03-31T07:17:29.996Z,57.77
2019-03-31T07:20:01.216Z,50.50
2019-03-31T07:22:33.650Z,53.93
2019-03-31T07:25:05.644Z,53.63
2019-03-31T07:27:37.033Z,54.50
2019-03-31T07:30:09.235Z,56.83
2019-03-31T07:32:40.488Z,53.23
2019-03-31T07:35:18.638Z,57.23
2019-03-31T07:37:48.236Z,56.63
2019-03-31T07:40:21.133Z,58.97
2019-03-31T07:42:52.667Z,58.57
2019-03-31T07:45:24.979Z,58.70
2019-03-31T07:47:56.273Z,54.37
2019-03-31T07:50:28.822Z,58.10
2019-03-31T07:53:01.047Z,61.43
2019-03-31T07:55:41.197Z,59.17
2019-03-31T07:58:17.588Z,60.63
2019-03-31T08:00:48.758Z,59.03
2019-03-31T08:03:22.074Z,57.80
2019-03-31T08:05:53.521Z,56.83
2019-03-31T08:08:27.585Z,60.10
2019-03-31T08:10:59.248Z,56.27
2019-03-31T08:13:34.219Z,56.93
2019-03-31T08:16:07.473Z,56.00
2019-03-31T08:18:39.053Z,58.43
2019-03-31T08:21:10.630Z,61.23
2019-03-31T08:23:43.865Z,60.13
2019-03-31T08:26:15.219Z,55.60
2019-03-31T08:28:46.329Z,61.27
2019-03-31T08:31:17.665Z,53.03
2019-03-31T08:33:54.108Z,55.60
2019-03-31T08:36:25.503Z,53.77
2019-03-31T08:39:00.307Z,53.00
2019-03-31T08:41:33.472Z,52.67
2019-03-31T08:44:08.682Z,56.83
2019-03-31T08:46:39.888Z,51.67
2019-03-31T08:49:13.988Z,49.70
2019-03-31T08:51:45.282Z,51.23
2019-03-31T08:54:16.532Z,35.33
2019-03-31T08:56:47.831Z,42.97
2019-03-31T08:59:29.963Z,38.60
2019-03-31T09:02:03.473Z,43.10
2019-03-31T09:04:34.807Z,45.43
2019-03-31T09:07:06.081Z,40.13
2019-03-31T09:09:37.228Z,41.73
2019-03-31T09:12:08.540Z,36.27
2019-03-31T09:14:40.848Z,35.73
2019-03-31T09:17:12.068Z,43.27
2019-03-31T09:19:43.638Z,42.10
2019-03-31T09:22:14.993Z,41.23
2019-03-31T09:24:54.384Z,42.50
2019-03-31T09:27:25.486Z,40.00
2019-03-31T09:29:56.628Z,38.37
2019-03-31T09:32:27.803Z,37.53
2019-03-31T09:34:58.924Z,39.20
2019-03-31T09:37:30.036Z,39.87
2019-03-31T09:40:01.335Z,39.57
2019-03-31T09:42:33.686Z,36.27
2019-03-31T09:45:05.696Z,35.27
2019-03-31T09:47:38.930Z,38.97
2019-03-31T09:50:11.580Z,36.67
2019-03-31T09:52:44.028Z,35.57
2019-03-31T09:55:22.902Z,41.53
2019-03-31T09:57:52.733Z,35.30
2019-03-31T10:00:50.748Z,39.33
2019-03-31T10:03:22.561Z,35.27
2019-03-31T10:05:53.688Z,37.67
2019-03-31T10:08:30.121Z,35.43
2019-03-31T10:11:02.968Z,34.57
2019-03-31T10:13:34.430Z,37.67
2019-03-31T10:16:05.780Z,38.83
2019-03-31T10:18:58.432Z,35.30
2019-03-31T10:21:29.703Z,34.43
2019-03-31T10:24:00.986Z,33.17
2019-03-31T10:26:32.619Z,37.33
2019-03-31T10:29:03.936Z,37.90
2019-03-31T10:31:35.240Z,35.77
2019-03-31T10:34:06.717Z,32.97
2019-03-31T10:36:44.882Z,31.23
2019-03-31T10:39:12.942Z,32.37
2019-03-31T10:41:53.811Z,33.07
2019-03-31T10:44:25.123Z,33.10
2019-03-31T10:47:02.300Z,28.40
2019-03-31T10:49:34.868Z,25.57
2019-03-31T10:52:06.198Z,32.13
2019-03-31T10:54:37.376Z,30.03
2019-03-31T10:57:08.585Z,36.53
2019-03-31T10:59:39.862Z,41.37
2019-03-31T11:02:11.082Z,39.87
2019-03-31T11:04:42.425Z,39.33
2019-03-31T11:07:13.699Z,31.20
2019-03-31T11:09:51.005Z,40.30
2019-03-31T11:12:22.266Z,34.10
2019-03-31T11:14:55.383Z,32.67
2019-03-31T11:17:26.647Z,35.23
2019-03-31T11:20:00.609Z,35.60
2019-03-31T11:22:41.556Z,31.30
2019-03-31T11:25:28.900Z,33.57
2019-03-31T11:27:58.016Z,34.30
2019-03-31T11:30:29.181Z,31.63
2019-03-31T11:33:00.373Z,33.33
2019-03-31T11:35:33.748Z,28.40
2019-03-31T11:38:04.978Z,30.17
2019-03-31T11:40:36.594Z,31.23
2019-03-31T11:43:07.929Z,31.67
2019-03-31T11:45:40.395Z,30.23
2019-03-31T11:48:11.909Z,29.33
2019-03-31T11:50:43.235Z,33.03
2019-03-31T11:53:14.571Z,30.87
2019-03-31T11:55:45.837Z,30.10
2019-03-31T11:58:17.193Z,27.70
2019-03-31T12:00:53.133Z,32.03
2019-03-31T12:03:24.654Z,26.83
2019-03-31T12:05:56.150Z,26.57
2019-03-31T12:08:27.653Z,27.03
2019-03-31T12:11:02.340Z,26.93
2019-03-31T12:13:35.686Z,31.67
2019-03-31T12:16:07.055Z,29.03
2019-03-31T12:18:41.737Z,27.03
2019-03-31T12:21:14.044Z,24.03
2019-03-31T12:23:47.261Z,26.60
2019-03-31T12:26:19.588Z,26.97
2019-03-31T12:28:57.591Z,22.97
2019-03-31T12:31:29.109Z,26.57
2019-03-31T12:34:00.882Z,25.43
2019-03-31T12:36:32.144Z,25.40
2019-03-31T12:39:05.972Z,21.40
2019-03-31T12:41:39.216Z,20.40
2019-03-31T12:44:11.362Z,22.53
2019-03-31T12:46:50.094Z,23.70
2019-03-31T12:49:21.490Z,22.10
2019-03-31T12:51:55.336Z,20.57
2019-03-31T12:54:32.059Z,18.20
2019-03-31T12:57:04.440Z,22.43
2019-03-31T12:59:35.768Z,23.27
2019-03-31T13:02:07.040Z,20.33
2019-03-31T13:04:38.374Z,22.73
2019-03-31T13:07:14.996Z,20.30
2019-03-31T13:09:54.292Z,18.37
2019-03-31T13:12:25.878Z,22.63
2019-03-31T13:14:57.351Z,18.60
2019-03-31T13:17:29.276Z,19.73
2019-03-31T13:20:02.168Z,18.17
2019-03-31T13:22:35.574Z,19.30
2019-03-31T13:25:07.206Z,19.27
2019-03-31T13:27:40.098Z,20.27
2019-03-31T13:30:12.116Z,19.63
2019-03-31T13:32:45.219Z,20.90
2019-03-31T13:35:22.591Z,19.33
2019-03-31T13:38:10.040Z,18.30
2019-03-31T13:40:30.040Z,19.37
2019-03-31T13:43:02.453Z,20.13
2019-03-31T13:45:33.763Z,21.47
2019-03-31T13:48:10.005Z,17.10
2019-03-31T13:50:42.564Z,21.10
2019-03-31T13:53:16.337Z,20.93
2019-03-31T13:55:53.499Z,20.23
2019-03-31T13:58:28.653Z,16.63
2019-03-31T14:01:02.057Z,18.13
2019-03-31T14:03:33.324Z,17.93
2019-03-31T14:06:07.643Z,19.33
2019-03-31T14:08:38.948Z,16.67
2019-03-31T14:11:10.353Z,18.73
2019-03-31T14:13:41.851Z,19.03
2019-03-31T14:16:13.144Z,17.93
2019-03-31T14:18:46.307Z,16.17
2019-03-31T14:21:17.758Z,16.93
2019-03-31T14:23:53.726Z,18.47
2019-03-31T14:26:25.144Z,17.30
2019-03-31T14:28:57.468Z,15.80
2019-03-31T14:31:28.713Z,19.20
2019-03-31T14:34:00.027Z,14.83
2019-03-31T14:36:31.411Z,15.90
2019-03-31T14:39:02.953Z,19.13
2019-03-31T14:41:34.312Z,19.03
2019-03-31T14:44:05.702Z,15.77
2019-03-31T14:46:38.211Z,16.07
2019-03-31T14:49:09.528Z,16.23
2019-03-31T14:51:42.874Z,14.43
2019-03-31T14:54:14.183Z,13.87
2019-03-31T14:56:46.953Z,13.53
2019-03-31T14:59:18.365Z,15.77
2019-03-31T15:01:49.582Z,15.73
2019-03-31T15:04:20.891Z,14.07
2019-03-31T15:06:53.291Z,11.83
2019-03-31T15:09:24.695Z,15.20
2019-03-31T15:11:56.018Z,12.53
2019-03-31T15:14:27.396Z,14.23
2019-03-31T15:16:59.699Z,11.63
2019-03-31T15:19:37.822Z,12.67
2019-03-31T15:22:12.614Z,10.83
2019-03-31T15:24:43.911Z,13.27
2019-03-31T15:27:15.155Z,14.27
2019-03-31T15:29:46.351Z,11.97
2019-03-31T15:32:17.471Z,9.70
2019-03-31T15:34:49.839Z,10.33
2019-03-31T15:37:25.819Z,12.17
2019-03-31T15:39:59.343Z,9.83
2019-03-31T15:42:31.645Z,11.90
2019-03-31T15:45:02.998Z,11.47
2019-03-31T15:47:35.997Z,11.10
2019-03-31T15:50:07.865Z,11.27
2019-03-31T15:52:39.587Z,11.23
2019-03-31T15:55:11.654Z,9.40
2019-03-31T15:57:42.962Z,12.13
2019-03-31T16:00:15.100Z,10.53
2019-03-31T16:02:48.961Z,13.13
2019-03-31T16:05:20.525Z,12.50
2019-03-31T16:07:51.473Z,9.97
2019-03-31T16:10:22.201Z,11.67
2019-03-31T16:12:54.256Z,9.17
2019-03-31T16:15:25.150Z,8.67
2019-03-31T16:17:55.900Z,11.27
2019-03-31T16:20:26.912Z,10.17
2019-03-31T16:23:01.071Z,10.00
2019-03-31T16:25:37.744Z,10.63
2019-03-31T16:28:15.223Z,8.13
2019-03-31T16:30:48.391Z,6.63
2019-03-31T16:33:19.649Z,9.07
2019-03-31T16:35:52.172Z,7.40
2019-03-31T16:38:25.727Z,6.60
2019-03-31T16:40:57.404Z,8.97
2019-03-31T16:43:29.323Z,6.73
2019-03-31T16:46:01.558Z,8.37
2019-03-31T16:48:33.748Z,8.53
2019-03-31T16:51:04.831Z,10.90
2019-03-31T16:53:39.300Z,7.77
2019-03-31T16:56:10.442Z,9.90
2019-03-31T16:58:42.396Z,9.43
2019-03-31T17:01:13.672Z,9.77
2019-03-31T17:03:44.591Z,11.13
2019-03-31T17:06:15.542Z,6.77
2019-03-31T17:08:47.622Z,9.43
2019-03-31T17:11:19.533Z,5.93
2019-03-31T17:13:52.439Z,8.67
2019-03-31T17:16:26.449Z,7.67
2019-03-31T17:18:57.515Z,7.03
2019-03-31T17:21:28.445Z,8.77
2019-03-31T17:23:59.381Z,9.03
2019-03-31T17:26:31.316Z,7.03
2019-03-31T17:29:05.911Z,9.10
2019-03-31T17:31:36.716Z,14.47
2019-03-31T17:34:07.565Z,11.90
2019-03-31T17:36:38.281Z,9.70
2019-03-31T17:39:09.026Z,9.97
2019-03-31T17:41:39.973Z,11.37
2019-03-31T17:44:10.659Z,9.00
2019-03-31T17:46:41.964Z,8.83
2019-03-31T17:49:13.062Z,8.63
2019-03-31T17:51:45.748Z,10.27
2019-03-31T17:54:17.414Z,12.40
2019-03-31T17:56:48.259Z,13.93
2019-03-31T17:59:20.067Z,7.57
2019-03-31T18:01:51.858Z,11.13
2019-03-31T18:04:34.162Z,8.90
2019-03-31T18:07:06.948Z,6.13
2019-03-31T18:09:38.130Z,7.03
2019-03-31T18:12:11.936Z,14.90
2019-03-31T18:14:45.419Z,11.00
2019-03-31T18:17:16.885Z,10.87
2019-03-31T18:19:49.022Z,9.03
2019-03-31T18:22:20.771Z,13.47
2019-03-31T18:24:54.521Z,7.03
2019-03-31T18:27:33.822Z,7.63
2019-03-31T18:30:07.190Z,6.07
2019-03-31T18:32:38.054Z,10.13
2019-03-31T18:35:08.834Z,10.40
2019-03-31T18:37:40.523Z,12.57
2019-03-31T18:40:12.425Z,11.33
2019-03-31T18:42:44.651Z,9.50
2019-03-31T18:45:20.183Z,8.23
2019-03-31T18:48:01.347Z,12.47
2019-03-31T18:50:33.958Z,10.63
2019-03-31T18:53:12.381Z,11.47
2019-03-31T18:55:51.193Z,7.50
2019-03-31T18:58:25.254Z,12.27
2019-03-31T19:01:11.386Z,9.70
2019-03-31T19:03:49.710Z,10.43
2019-03-31T19:06:28.440Z,11.57
2019-03-31T19:09:03.811Z,11.53
2019-03-31T19:11:59.084Z,10.40
2019-03-31T19:14:34.225Z,9.47
2019-03-31T19:17:15.843Z,11.27
2019-03-31T19:19:51.165Z,10.03
2019-03-31T19:22:24.754Z,10.17
2019-03-31T19:25:13.714Z,9.27
2019-03-31T19:27:49.487Z,9.57
2019-03-31T19:30:22.020Z,8.97
2019-03-31T19:33:15.209Z,8.40
2019-03-31T19:36:00.483Z,7.80
2019-03-31T19:38:50.875Z,9.90
2019-03-31T19:41:38.706Z,8.00
2019-03-31T19:44:18.446Z,10.20
2019-03-31T19:47:05.752Z,8.13
2019-03-31T19:49:38.399Z,8.17
2019-03-31T19:52:18.661Z,7.13
2019-03-31T19:54:54.222Z,8.60
2019-03-31T19:57:27.146Z,8.63
2019-03-31T20:00:15.742Z,7.70
2019-03-31T20:02:49.564Z,7.80
2019-03-31T20:05:25.249Z,6.97
2019-03-31T20:08:02.419Z,8.97
2019-03-31T20:10:54.450Z,8.23
2019-03-31T20:13:45.177Z,7.63
2019-03-31T20:16:36.034Z,9.07
2019-03-31T20:19:14.433Z,7.30
2019-03-31T20:22:20.515Z,7.83
2019-03-31T20:25:03.341Z,10.00
2019-03-31T20:27:54.214Z,6.33
2019-03-31T20:30:59.820Z,8.97
2019-03-31T20:33:32.119Z,7.83
2019-03-31T20:36:04.495Z,13.37
2019-03-31T20:38:55.393Z,8.80
2019-03-31T20:41:32.009Z,8.07
2019-03-31T20:44:02.808Z,7.83
2019-03-31T20:46:33.543Z,8.80
2019-03-31T20:49:04.287Z,8.73
2019-03-31T20:52:10.042Z,9.67
2019-03-31T20:54:41.816Z,8.20
2019-03-31T20:57:12.443Z,8.13
2019-03-31T20:59:43.198Z,8.60
2019-03-31T21:02:31.955Z,7.10
2019-03-31T21:05:02.585Z,8.23
2019-03-31T21:07:33.586Z,8.00
2019-03-31T21:10:07.390Z,19.70
2019-03-31T21:12:38.134Z,5.70
2019-03-31T21:15:08.842Z,6.90
2019-03-31T21:17:39.771Z,9.90
2019-03-31T21:20:10.687Z,6.40
2019-03-31T21:22:41.584Z,12.50
2019-03-31T21:25:13.823Z,11.30
2019-03-31T21:27:44.748Z,10.77
2019-03-31T21:30:33.662Z,9.70
2019-03-31T21:33:05.450Z,9.30
2019-03-31T21:35:48.439Z,9.50
2019-03-31T21:38:19.041Z,13.30
2019-03-31T21:40:50.033Z,8.70
2019-03-31T21:43:20.634Z,10.40
2019-03-31T21:45:58.238Z,9.90
2019-03-31T21:48:28.944Z,6.87
2019-03-31T21:50:59.674Z,12.33
2019-03-31T21:53:31.503Z,10.57
2019-03-31T21:56:02.135Z,9.37
2019-03-31T21:58:33.029Z,8.93
2019-03-31T22:01:29.995Z,10.77
2019-03-31T22:04:00.696Z,9.77
2019-03-31T22:06:32.513Z,7.07
2019-03-31T22:09:04.873Z,10.10
2019-03-31T22:11:37.072Z,10.43
2019-03-31T22:14:10.484Z,12.10
2019-03-31T22:16:42.222Z,7.70
2019-03-31T22:19:14.924Z,7.10
2019-03-31T22:21:51.617Z,9.23
2019-03-31T22:24:22.173Z,9.60
2019-03-31T22:26:52.660Z,7.50
2019-03-31T22:29:29.046Z,5.60
2019-03-31T22:31:59.737Z,10.13
2019-03-31T22:34:31.493Z,6.13
2019-03-31T22:37:03.258Z,10.07
2019-03-31T22:39:40.030Z,9.87
2019-03-31T22:42:10.768Z,7.40
2019-03-31T22:44:41.685Z,7.73
2019-03-31T22:47:19.797Z,8.53
2019-03-31T22:49:50.434Z,9.57
2019-03-31T22:52:21.178Z,12.03
2019-03-31T22:54:51.760Z,7.30
2019-03-31T22:57:22.416Z,7.73
2019-03-31T22:59:57.152Z,14.30
2019-03-31T23:02:31.708Z,9.00
2019-03-31T23:05:03.361Z,8.43
2019-03-31T23:07:34.073Z,12.97
2019-03-31T23:10:05.844Z,10.60
2019-03-31T23:12:36.699Z,7.10
2019-03-31T23:15:07.748Z,10.30
2019-03-31T23:17:41.665Z,10.17
2019-03-31T23:20:12.384Z,5.07
2019-03-31T23:22:42.866Z,9.70
2019-03-31T23:25:15.557Z,10.63
2019-03-31T23:27:46.265Z,10.17
2019-03-31T23:30:17.011Z,9.27
2019-03-31T23:32:53.445Z,10.77
2019-03-31T23:35:24.162Z,11.03
2019-03-31T23:37:54.824Z,8.67
2019-03-31T23:40:25.424Z,9.80
2019-03-31T23:42:56.307Z,10.93
2019-03-31T23:45:26.893Z,10.17
2019-03-31T23:47:57.550Z,10.50
2019-03-31T23:50:28.151Z,11.03
2019-03-31T23:52:58.926Z,6.80
2019-03-31T23:55:29.585Z,13.30
2019-03-31T23:58:04.269Z,8.43
